Oxford, Indiana
Current Conditions -  °F | °C
As of 5:54 AM on Sunday 23 Nov 2014 (Local Time) from KLAF Reporting Station
Few Clouds Few Clouds  
Wind Chill: 44°   Ceiling: Unl
Heat Index: 47°   Visibility: 10mi
Dew Point: 41°   Wind: 6mph
Humidity: 80%   Direction: 160°SSE
Pressure: 29.85"   Gusts: NA
Location:  40.52°N, 87.25°W
Report Text: KLAF 231054Z AUTO 16005KT 10SM FEW095 08/05 A2985 RMK AO2 SLP109 T00830050 TSNO
Loading
Personal Weather Stations






























Interactive Weather Map New forecast layout! Learn more

10-Day Weather Forecast

Advertisements
Track Severe Weather on mobile